createdAt,value
2023-01-19T00:00:15.242Z,99171.47
2023-01-19T00:02:43.467Z,99166.44
2023-01-19T00:05:10.105Z,99165.50
2023-01-19T00:07:36.526Z,99170.81
2023-01-19T00:10:03.230Z,99175.06
2023-01-19T00:12:29.650Z,99171.66
2023-01-19T00:14:56.032Z,99176.78
2023-01-19T00:17:22.662Z,99177.63
2023-01-19T00:19:49.059Z,99183.84
2023-01-19T00:22:15.443Z,99181.09
2023-01-19T00:24:41.782Z,99186.28
2023-01-19T00:27:08.233Z,99176.78
2023-01-19T00:29:35.220Z,99184.47
2023-01-19T00:32:02.718Z,99193.09
2023-01-19T00:34:36.783Z,99188.78
2023-01-19T00:37:04.353Z,99189.69
2023-01-19T00:39:30.687Z,99188.81
2023-01-19T00:42:15.695Z,99184.44
2023-01-19T00:44:42.126Z,99179.34
2023-01-19T00:47:08.627Z,99190.66
2023-01-19T00:49:34.983Z,99189.69
2023-01-19T00:52:01.351Z,99189.78
2023-01-19T00:54:27.772Z,99192.25
2023-01-19T00:56:54.159Z,99190.59
2023-01-19T00:59:20.650Z,99201.03
2023-01-19T01:01:47.100Z,99192.44
2023-01-19T01:04:14.192Z,99190.75
2023-01-19T01:06:40.670Z,99193.25
2023-01-19T01:09:11.882Z,99195.06
2023-01-19T01:11:40.187Z,99198.50
2023-01-19T01:14:06.950Z,99194.19
2023-01-19T01:16:33.682Z,99196.78
2023-01-19T01:19:00.109Z,99195.91
2023-01-19T01:21:26.753Z,99208.25
2023-01-19T01:23:53.098Z,99203.88
2023-01-19T01:26:19.482Z,99203.03
2023-01-19T01:28:45.850Z,99201.34
2023-01-19T01:31:12.368Z,99207.44
2023-01-19T01:33:41.076Z,99208.16
2023-01-19T01:36:09.422Z,99212.63
2023-01-19T01:38:35.829Z,99213.44
2023-01-19T01:41:02.454Z,99216.19
2023-01-19T01:43:58.123Z,99223.13
2023-01-19T01:46:25.978Z,99210.25
2023-01-19T01:49:13.483Z,99218.84
2023-01-19T01:51:48.100Z,99220.63
2023-01-19T01:54:23.128Z,99222.38
2023-01-19T01:56:55.027Z,99227.56
2023-01-19T01:59:26.337Z,99229.38
2023-01-19T02:02:14.417Z,99227.31
2023-01-19T02:04:47.582Z,99228.16
2023-01-19T02:07:38.415Z,99229.84
2023-01-19T02:10:23.548Z,99222.88
2023-01-19T02:13:08.794Z,99224.63
2023-01-19T02:15:35.187Z,99225.41
2023-01-19T02:18:01.617Z,99228.16
2023-01-19T02:20:31.230Z,99219.34
2023-01-19T02:23:03.772Z,99218.63
2023-01-19T02:25:30.620Z,99221.13
2023-01-19T02:27:57.130Z,99226.34
2023-01-19T02:30:24.113Z,99226.28
2023-01-19T02:32:50.548Z,99229.63
2023-01-19T02:35:17.080Z,99227.00
2023-01-19T02:37:44.613Z,99229.56
2023-01-19T02:40:14.212Z,99226.06
2023-01-19T02:42:43.855Z,99231.38
2023-01-19T02:45:12.718Z,99227.94
2023-01-19T02:47:42.979Z,99223.53
2023-01-19T02:50:38.140Z,99220.94
2023-01-19T02:53:17.917Z,99226.19
2023-01-19T02:55:54.163Z,99227.97
2023-01-19T02:58:33.517Z,99221.91
2023-01-19T03:01:15.453Z,99223.75
2023-01-19T03:03:58.425Z,99224.63
2023-01-19T03:06:46.881Z,99225.38
2023-01-19T03:09:35.321Z,99216.72
2023-01-19T03:12:09.505Z,99222.91
2023-01-19T03:14:41.695Z,99223.75
2023-01-19T03:17:10.924Z,99215.16
2023-01-19T03:19:41.497Z,99222.88
2023-01-19T03:22:13.364Z,99211.59
2023-01-19T03:24:45.090Z,99222.00
2023-01-19T03:27:17.278Z,99222.00
2023-01-19T03:29:50.939Z,99217.75
2023-01-19T03:32:21.660Z,99217.81
2023-01-19T03:34:51.356Z,99218.63
2023-01-19T03:37:20.291Z,99219.44
2023-01-19T03:39:46.827Z,99212.56
2023-01-19T03:42:16.116Z,99217.78
2023-01-19T03:44:45.491Z,99207.44
2023-01-19T03:47:14.563Z,99209.25
2023-01-19T03:49:44.117Z,99216.22
2023-01-19T03:52:10.935Z,99217.16
2023-01-19T03:54:37.401Z,99209.34
2023-01-19T03:57:03.924Z,99222.41
2023-01-19T03:59:30.351Z,99225.97
2023-01-19T04:01:56.849Z,99219.88
2023-01-19T04:04:23.631Z,99221.59
2023-01-19T04:06:49.992Z,99219.00
2023-01-19T04:09:18.573Z,99221.66
2023-01-19T04:11:45.595Z,99228.59
2023-01-19T04:14:11.984Z,99216.47
2023-01-19T04:16:38.401Z,99225.13
2023-01-19T04:19:04.752Z,99214.72
2023-01-19T04:21:31.077Z,99206.91
2023-01-19T04:23:57.573Z,99210.38
2023-01-19T04:26:23.957Z,99219.06
2023-01-19T04:28:50.305Z,99213.84
2023-01-19T04:31:16.746Z,99218.19
2023-01-19T04:33:43.144Z,99215.56
2023-01-19T04:36:09.576Z,99212.09
2023-01-19T04:38:36.141Z,99212.09
2023-01-19T04:41:02.603Z,99215.56
2023-01-19T04:43:28.971Z,99217.25
2023-01-19T04:45:55.346Z,99218.09
2023-01-19T04:48:21.783Z,99218.06
2023-01-19T04:50:48.242Z,99219.78
2023-01-19T04:53:16.190Z,99221.50
2023-01-19T04:55:42.551Z,99216.25
2023-01-19T04:58:08.920Z,99213.66
2023-01-19T05:00:35.525Z,99213.59
2023-01-19T05:03:02.262Z,99220.59
2023-01-19T05:05:29.587Z,99222.28
2023-01-19T05:07:56.130Z,99215.34
2023-01-19T05:10:23.741Z,99222.28
2023-01-19T05:12:50.213Z,99208.34
2023-01-19T05:15:16.766Z,99215.25
2023-01-19T05:17:43.123Z,99222.22
2023-01-19T05:20:12.526Z,99218.75
2023-01-19T05:22:39.731Z,99217.00
2023-01-19T05:25:08.757Z,99225.69
2023-01-19T05:27:36.376Z,99217.88
2023-01-19T05:30:05.028Z,99228.09
2023-01-19T05:32:31.513Z,99229.06
2023-01-19T05:34:57.941Z,99229.13
2023-01-19T05:37:24.503Z,99231.72
2023-01-19T05:39:50.993Z,99239.59
2023-01-19T05:42:17.435Z,99233.38
2023-01-19T05:44:43.834Z,99238.53
2023-01-19T05:47:11.726Z,99237.66
2023-01-19T05:49:38.138Z,99241.91
2023-01-19T05:52:04.641Z,99236.59
2023-01-19T05:54:31.045Z,99241.81
2023-01-19T05:56:57.703Z,99248.75
2023-01-19T05:59:24.299Z,99247.81
2023-01-19T06:01:51.775Z,99250.44
2023-01-19T06:04:19.303Z,99253.88
2023-01-19T06:06:48.424Z,99255.56
2023-01-19T06:09:14.809Z,99256.44
2023-01-19T06:11:41.276Z,99260.69
2023-01-19T06:14:09.827Z,99271.16
2023-01-19T06:16:36.279Z,99271.97
2023-01-19T06:19:02.873Z,99278.94
2023-01-19T06:21:29.285Z,99272.84
2023-01-19T06:23:55.676Z,99278.81
2023-01-19T06:26:22.082Z,99287.53
2023-01-19T06:28:50.930Z,99278.84
2023-01-19T06:31:17.530Z,99285.81
2023-01-19T06:33:43.936Z,99289.22
2023-01-19T06:36:10.357Z,99292.81
2023-01-19T06:38:36.773Z,99292.81
2023-01-19T06:41:03.510Z,99290.22
2023-01-19T06:43:31.334Z,99296.31
2023-01-19T06:45:58.483Z,99295.47
2023-01-19T06:48:24.959Z,99300.63
2023-01-19T06:50:51.469Z,99294.53
2023-01-19T06:53:19.847Z,99305.91
2023-01-19T06:55:46.619Z,99306.81
2023-01-19T06:58:13.499Z,99312.84
2023-01-19T07:00:39.989Z,99312.81
2023-01-19T07:03:08.485Z,99316.31
2023-01-19T07:05:36.388Z,99303.41
2023-01-19T07:08:03.925Z,99310.44
2023-01-19T07:11:26.173Z,99306.09
2023-01-19T07:13:17.183Z,99312.19
2023-01-19T07:15:43.533Z,99317.41
2023-01-19T07:18:10.150Z,99320.94
2023-01-19T07:20:37.693Z,99315.59
2023-01-19T07:23:04.606Z,99310.31
2023-01-19T07:25:31.132Z,99322.47
2023-01-19T07:27:58.911Z,99320.59
2023-01-19T07:30:25.851Z,99319.69
2023-01-19T07:32:55.087Z,99324.88
2023-01-19T07:35:21.930Z,99327.53
2023-01-19T07:37:48.347Z,99316.28
2023-01-19T07:40:14.909Z,99324.09
2023-01-19T07:42:46.643Z,99319.72
2023-01-19T07:45:14.164Z,99324.91
2023-01-19T07:47:43.227Z,99331.88
2023-01-19T07:50:11.003Z,99321.34
2023-01-19T07:52:37.380Z,99328.31
2023-01-19T07:55:03.915Z,99315.03
2023-01-19T07:57:30.335Z,99316.78
2023-01-19T07:59:56.837Z,99314.16
2023-01-19T08:02:23.326Z,99321.16
2023-01-19T08:04:49.801Z,99317.66
2023-01-19T08:07:16.274Z,99311.44
2023-01-19T08:09:42.685Z,99315.81
2023-01-19T08:12:09.185Z,99302.06
2023-01-19T08:14:35.595Z,99314.31
2023-01-19T08:17:02.709Z,99315.03
2023-01-19T08:19:29.488Z,99317.69
2023-01-19T08:21:56.509Z,99319.34
2023-01-19T08:24:25.323Z,99322.81
2023-01-19T08:27:01.083Z,99324.47
2023-01-19T08:29:27.770Z,99327.88
2023-01-19T08:31:55.462Z,99326.00
2023-01-19T08:34:21.906Z,99336.47
2023-01-19T08:36:48.231Z,99340.56
2023-01-19T08:39:14.571Z,99342.19
2023-01-19T08:41:41.005Z,99340.97
2023-01-19T08:44:07.489Z,99340.97
2023-01-19T08:46:34.077Z,99344.09
2023-01-19T08:49:00.499Z,99348.44
2023-01-19T08:51:27.012Z,99339.25
2023-01-19T08:53:53.388Z,99352.66
2023-01-19T08:56:20.747Z,99343.84
2023-01-19T08:58:56.228Z,99341.03
2023-01-19T09:01:30.010Z,99346.31
2023-01-19T09:03:56.474Z,99361.25
2023-01-19T09:06:25.179Z,99357.25
2023-01-19T09:08:51.591Z,99361.50
2023-01-19T09:11:18.634Z,99362.81
2023-01-19T09:13:45.270Z,99363.28
2023-01-19T09:16:13.368Z,99368.84
2023-01-19T09:18:40.047Z,99360.50
2023-01-19T09:21:06.727Z,99374.97
2023-01-19T09:23:33.098Z,99376.63
2023-01-19T09:26:02.182Z,99372.63
2023-01-19T09:28:29.508Z,99375.16
2023-01-19T09:30:56.173Z,99374.47
2023-01-19T09:33:22.992Z,99375.44
2023-01-19T09:35:51.725Z,99375.50
2023-01-19T09:38:19.342Z,99381.03
2023-01-19T09:40:53.262Z,99384.38
2023-01-19T09:43:41.249Z,99379.84
2023-01-19T09:46:24.426Z,99377.41
2023-01-19T09:48:54.553Z,99381.03
2023-01-19T09:51:28.193Z,99379.28
2023-01-19T09:54:12.368Z,99373.94
2023-01-19T09:56:39.343Z,99380.19
2023-01-19T09:59:30.233Z,99382.63
2023-01-19T10:02:30.509Z,99380.66
2023-01-19T10:05:19.810Z,99381.69
2023-01-19T10:07:55.326Z,99385.19
2023-01-19T10:10:27.433Z,99383.19
2023-01-19T10:13:21.530Z,99390.06
2023-01-19T10:16:01.026Z,99381.97
2023-01-19T10:18:36.929Z,99373.19
2023-01-19T10:21:12.660Z,99378.97
2023-01-19T10:24:05.846Z,99375.47
2023-01-19T10:26:43.727Z,99376.41
2023-01-19T10:29:36.577Z,99372.03
2023-01-19T10:32:13.713Z,99382.47
2023-01-19T10:34:41.550Z,99375.88
2023-01-19T10:37:32.524Z,99379.03
2023-01-19T10:40:11.100Z,99375.97
2023-01-19T10:42:40.449Z,99370.53
2023-01-19T10:45:29.403Z,99376.94
2023-01-19T10:47:59.636Z,99368.69
2023-01-19T10:50:29.577Z,99367.66
2023-01-19T10:53:05.844Z,99355.13
2023-01-19T10:55:37.630Z,99359.78
2023-01-19T10:58:05.805Z,99362.06
2023-01-19T11:00:32.256Z,99359.50
2023-01-19T11:02:59.335Z,99362.19
2023-01-19T11:05:29.472Z,99361.13
2023-01-19T11:07:56.638Z,99359.47
2023-01-19T11:10:26.152Z,99355.75
2023-01-19T11:13:12.642Z,99359.13
2023-01-19T11:15:47.252Z,99357.22
2023-01-19T11:18:28.556Z,99353.63
2023-01-19T11:20:57.676Z,99366.34
2023-01-19T11:23:34.729Z,99354.97
2023-01-19T11:26:05.103Z,99369.69
2023-01-19T11:28:35.059Z,99362.53
2023-01-19T11:31:16.286Z,99361.41
2023-01-19T11:33:52.431Z,99362.03
2023-01-19T11:36:25.654Z,99363.38
2023-01-19T11:38:54.975Z,99358.28
2023-01-19T11:41:24.078Z,99368.09
2023-01-19T11:43:53.641Z,99367.63
2023-01-19T11:46:23.606Z,99359.63
2023-01-19T11:48:57.971Z,99365.19
2023-01-19T11:51:28.517Z,99360.84
2023-01-19T11:53:54.863Z,99364.63
2023-01-19T11:56:29.100Z,99368.94
2023-01-19T11:58:56.246Z,99363.81
2023-01-19T12:01:25.820Z,99359.28
2023-01-19T12:04:14.177Z,99355.66
2023-01-19T12:06:44.757Z,99354.69
2023-01-19T12:09:14.103Z,99353.47
2023-01-19T12:11:46.335Z,99349.97
2023-01-19T12:14:55.806Z,99357.31
2023-01-19T12:17:33.714Z,99352.44
2023-01-19T12:20:13.230Z,99353.13
2023-01-19T12:22:50.156Z,99352.75
2023-01-19T12:25:26.059Z,99348.25
2023-01-19T12:27:53.980Z,99346.47
2023-01-19T12:30:24.596Z,99350.81
2023-01-19T12:32:51.305Z,99344.75
2023-01-19T12:36:00.683Z,99342.84
2023-01-19T12:38:34.634Z,99337.75
2023-01-19T12:41:21.203Z,99338.59
2023-01-19T12:44:08.670Z,99326.94
2023-01-19T12:46:35.986Z,99321.41
2023-01-19T12:49:11.819Z,99329.56
2023-01-19T12:51:38.475Z,99313.47
2023-01-19T12:54:08.565Z,99329.03
2023-01-19T12:56:37.489Z,99320.50
2023-01-19T12:59:05.348Z,99324.25
2023-01-19T13:01:31.919Z,99327.47
2023-01-19T13:04:09.139Z,99325.19
2023-01-19T13:06:47.774Z,99326.53
2023-01-19T13:09:31.676Z,99329.53
2023-01-19T13:12:13.516Z,99330.22
2023-01-19T13:14:41.673Z,99324.88
2023-01-19T13:17:24.440Z,99324.25
2023-01-19T13:20:01.474Z,99325.25
2023-01-19T13:22:46.408Z,99330.13
2023-01-19T13:25:26.681Z,99325.41
2023-01-19T13:27:53.186Z,99329.38
2023-01-19T13:30:25.419Z,99325.38
2023-01-19T13:32:51.857Z,99326.09
2023-01-19T13:35:20.383Z,99327.75
2023-01-19T13:37:48.103Z,99326.69
2023-01-19T13:40:22.511Z,99333.84
2023-01-19T13:42:51.282Z,99328.91
2023-01-19T13:45:29.237Z,99335.25
2023-01-19T13:47:58.095Z,99330.22
2023-01-19T13:50:30.797Z,99336.19
2023-01-19T13:52:58.871Z,99340.91
2023-01-19T13:55:30.843Z,99348.59
2023-01-19T13:57:57.670Z,99352.69
2023-01-19T14:00:30.992Z,99351.59
2023-01-19T14:03:09.616Z,99350.03
2023-01-19T14:05:41.665Z,99359.44
2023-01-19T14:08:08.026Z,99360.34
2023-01-19T14:11:02.441Z,99354.81
2023-01-19T14:13:31.559Z,99355.19
2023-01-19T14:16:12.348Z,99362.09
2023-01-19T14:18:38.756Z,99360.59
2023-01-19T14:21:07.879Z,99359.34
2023-01-19T14:23:55.313Z,99370.59
2023-01-19T14:26:54.627Z,99365.78
2023-01-19T14:29:33.110Z,99364.25
2023-01-19T14:32:15.599Z,99369.41
2023-01-19T14:35:13.040Z,99375.63
2023-01-19T14:37:47.473Z,99380.81
2023-01-19T14:40:22.355Z,99375.25
2023-01-19T14:42:59.932Z,99382.28
2023-01-19T14:45:36.926Z,99383.31
2023-01-19T14:48:06.719Z,99376.34
2023-01-19T14:50:39.211Z,99391.00
2023-01-19T14:53:12.800Z,99385.94
2023-01-19T14:55:47.035Z,99384.44
2023-01-19T14:58:15.599Z,99389.88
2023-01-19T15:00:42.870Z,99396.94
2023-01-19T15:03:10.056Z,99394.38
2023-01-19T15:05:38.369Z,99401.16
2023-01-19T15:08:05.782Z,99403.16
2023-01-19T15:10:32.463Z,99400.50
2023-01-19T15:13:00.002Z,99396.88
2023-01-19T15:15:32.349Z,99403.31
2023-01-19T15:18:04.295Z,99402.34
2023-01-19T15:20:30.741Z,99401.22
2023-01-19T15:22:57.292Z,99402.34
2023-01-19T15:25:27.478Z,99396.69
2023-01-19T15:27:58.298Z,99408.59
2023-01-19T15:30:33.908Z,99406.19
2023-01-19T15:33:00.363Z,99413.09
2023-01-19T15:35:26.841Z,99414.50
2023-01-19T15:37:53.211Z,99412.13
2023-01-19T15:40:20.127Z,99417.22
2023-01-19T15:42:46.710Z,99417.38
2023-01-19T15:45:43.243Z,99415.03
2023-01-19T15:48:12.742Z,99419.13
2023-01-19T15:50:42.008Z,99418.53
2023-01-19T15:53:13.795Z,99420.06
2023-01-19T15:55:40.263Z,99422.06
2023-01-19T15:58:06.730Z,99423.91
2023-01-19T16:00:33.995Z,99422.94
2023-01-19T16:03:02.037Z,99428.19
2023-01-19T16:05:42.062Z,99423.66
2023-01-19T16:08:10.203Z,99428.25
2023-01-19T16:10:36.634Z,99435.41
2023-01-19T16:13:03.887Z,99431.53
2023-01-19T16:15:30.294Z,99438.09
2023-01-19T16:17:56.679Z,99447.81
2023-01-19T16:20:23.135Z,99446.22
2023-01-19T16:22:49.631Z,99439.25
2023-01-19T16:25:15.976Z,99447.38
2023-01-19T16:27:42.462Z,99439.44
2023-01-19T16:30:11.533Z,99442.16
2023-01-19T16:32:38.829Z,99441.47
2023-01-19T16:35:05.725Z,99447.69
2023-01-19T16:37:32.116Z,99457.56
2023-01-19T16:39:58.523Z,99446.22
2023-01-19T16:42:24.999Z,99446.09
2023-01-19T16:44:51.354Z,99446.34
2023-01-19T16:47:17.688Z,99448.81
2023-01-19T16:49:44.075Z,99449.91
2023-01-19T16:52:10.532Z,99451.69
2023-01-19T16:54:39.354Z,99452.69
2023-01-19T16:57:05.850Z,99456.22
2023-01-19T16:59:32.461Z,99456.25
2023-01-19T17:01:59.027Z,99458.13
2023-01-19T17:04:26.425Z,99468.09
2023-01-19T17:06:53.739Z,99473.72
2023-01-19T17:09:20.265Z,99469.72
2023-01-19T17:11:46.701Z,99464.56
2023-01-19T17:14:20.475Z,99472.66
2023-01-19T17:16:47.837Z,99471.13
2023-01-19T17:19:16.924Z,99464.28
2023-01-19T17:21:46.111Z,99467.81
2023-01-19T17:24:13.013Z,99470.59
2023-01-19T17:26:39.450Z,99476.78
2023-01-19T17:29:08.027Z,99473.41
2023-01-19T17:31:35.580Z,99480.50
2023-01-19T17:34:02.518Z,99479.69
2023-01-19T17:36:30.821Z,99486.59
2023-01-19T17:38:59.351Z,99488.38
2023-01-19T17:41:30.774Z,99492.78
2023-01-19T17:43:59.047Z,99491.09
2023-01-19T17:46:27.206Z,99491.19
2023-01-19T17:49:01.719Z,99497.31
2023-01-19T17:51:29.399Z,99495.59
2023-01-19T17:53:56.174Z,99493.88
2023-01-19T17:56:28.311Z,99502.47
2023-01-19T17:58:56.015Z,99499.09
2023-01-19T18:01:27.661Z,99499.94
2023-01-19T18:03:54.473Z,99500.88
2023-01-19T18:06:21.173Z,99505.28
2023-01-19T18:08:48.659Z,99507.03
2023-01-19T18:11:17.594Z,99508.78
2023-01-19T18:13:45.807Z,99514.88
2023-01-19T18:16:15.282Z,99509.69
2023-01-19T18:18:42.030Z,99519.25
2023-01-19T18:21:14.835Z,99514.94
2023-01-19T18:23:43.402Z,99522.75
2023-01-19T18:26:12.953Z,99517.53
2023-01-19T18:28:39.381Z,99519.22
2023-01-19T18:31:11.030Z,99527.09
2023-01-19T18:33:38.531Z,99519.22
2023-01-19T18:36:05.790Z,99518.34
2023-01-19T18:38:32.241Z,99516.63
2023-01-19T18:41:07.301Z,99519.19
2023-01-19T18:43:34.236Z,99528.75
2023-01-19T18:46:00.844Z,99529.63
2023-01-19T18:48:27.422Z,99517.34
2023-01-19T18:50:54.142Z,99518.22
2023-01-19T18:53:21.309Z,99524.34
2023-01-19T18:55:52.537Z,99521.69
2023-01-19T18:58:19.610Z,99525.19
2023-01-19T19:00:46.373Z,99525.19
2023-01-19T19:03:12.849Z,99529.63
2023-01-19T19:05:39.723Z,99536.56
2023-01-19T19:08:06.530Z,99528.69
2023-01-19T19:10:33.461Z,99529.59
2023-01-19T19:12:59.845Z,99526.09
2023-01-19T19:15:27.103Z,99526.03
2023-01-19T19:17:54.431Z,99532.28
2023-01-19T19:20:23.296Z,99532.25
2023-01-19T19:22:50.554Z,99530.53
2023-01-19T19:25:17.987Z,99533.16
2023-01-19T19:27:47.823Z,99527.88
2023-01-19T19:30:14.639Z,99533.97
2023-01-19T19:32:41.434Z,99529.63
2023-01-19T19:35:08.183Z,99540.13
2023-01-19T19:37:34.594Z,99539.25
2023-01-19T19:40:01.039Z,99540.13
2023-01-19T19:42:30.015Z,99540.13
2023-01-19T19:44:56.849Z,99538.41
2023-01-19T19:47:24.458Z,99542.78
2023-01-19T19:49:50.961Z,99541.03
2023-01-19T19:52:17.332Z,99540.16
2023-01-19T19:54:45.092Z,99546.22
2023-01-19T19:57:11.442Z,99548.00
2023-01-19T19:59:37.880Z,99544.53
2023-01-19T20:02:04.537Z,99545.38
2023-01-19T20:04:30.963Z,99551.47
2023-01-19T20:06:59.091Z,99548.88
2023-01-19T20:09:25.529Z,99552.38
2023-01-19T20:11:52.848Z,99556.69
2023-01-19T20:14:19.257Z,99560.19
2023-01-19T20:16:45.636Z,99560.13
2023-01-19T20:19:12.015Z,99566.28
2023-01-19T20:21:41.858Z,99561.03
2023-01-19T20:24:18.160Z,99561.91
2023-01-19T20:26:51.067Z,99569.75
2023-01-19T20:29:18.161Z,99565.38
2023-01-19T20:31:47.675Z,99568.81
2023-01-19T20:34:16.744Z,99567.06
2023-01-19T20:36:46.723Z,99574.88
2023-01-19T20:39:13.078Z,99578.41
2023-01-19T20:41:43.643Z,99575.81
2023-01-19T20:44:12.321Z,99573.22
2023-01-19T20:46:38.859Z,99576.75
2023-01-19T20:49:06.337Z,99578.47
2023-01-19T20:51:33.122Z,99584.63
2023-01-19T20:53:59.601Z,99587.22
2023-01-19T20:56:25.940Z,99591.63
2023-01-19T20:58:52.310Z,99588.13
2023-01-19T21:01:22.667Z,99590.72
2023-01-19T21:03:49.839Z,99591.59
2023-01-19T21:06:17.797Z,99603.81
2023-01-19T21:08:44.657Z,99602.09
2023-01-19T21:11:11.315Z,99603.81
2023-01-19T21:13:37.746Z,99602.06
2023-01-19T21:16:04.917Z,99607.31
2023-01-19T21:18:31.406Z,99606.44
2023-01-19T21:20:58.327Z,99616.03
2023-01-19T21:23:26.313Z,99616.06
2023-01-19T21:25:54.685Z,99619.53
2023-01-19T21:28:22.930Z,99616.03
2023-01-19T21:30:50.485Z,99618.66
2023-01-19T21:33:17.718Z,99621.25
2023-01-19T21:35:55.572Z,99620.38
2023-01-19T21:38:23.197Z,99627.34
2023-01-19T21:40:50.327Z,99632.53
2023-01-19T21:43:17.507Z,99629.94
2023-01-19T21:45:43.990Z,99629.88
2023-01-19T21:48:10.593Z,99632.50
2023-01-19T21:50:37.193Z,99635.09
2023-01-19T21:53:05.974Z,99634.25
2023-01-19T21:55:33.037Z,99634.19
2023-01-19T21:58:00.041Z,99636.81
2023-01-19T22:00:29.327Z,99640.28
2023-01-19T22:03:03.693Z,99646.34
2023-01-19T22:05:36.500Z,99642.00
2023-01-19T22:08:03.805Z,99645.47
2023-01-19T22:10:30.314Z,99649.81
2023-01-19T22:12:56.820Z,99647.09
2023-01-19T22:15:23.263Z,99653.16
2023-01-19T22:17:49.608Z,99658.34
2023-01-19T22:20:16.214Z,99664.38
2023-01-19T22:22:42.739Z,99659.16
2023-01-19T22:25:09.566Z,99663.44
2023-01-19T22:27:37.338Z,99671.19
2023-01-19T22:30:04.170Z,99671.28
2023-01-19T22:32:31.153Z,99670.28
2023-01-19T22:34:57.594Z,99666.75
2023-01-19T22:37:24.127Z,99667.59
2023-01-19T22:39:50.706Z,99673.56
2023-01-19T22:42:17.207Z,99680.53
2023-01-19T22:44:43.683Z,99679.66
2023-01-19T22:47:10.170Z,99677.88
2023-01-19T22:49:36.639Z,99687.31
2023-01-19T22:52:02.997Z,99679.63
2023-01-19T22:54:30.155Z,99680.53
2023-01-19T22:56:56.554Z,99689.94
2023-01-19T22:59:22.929Z,99683.00
2023-01-19T23:01:49.850Z,99678.66
2023-01-19T23:04:16.426Z,99689.72
2023-01-19T23:06:43.524Z,99680.13
2023-01-19T23:09:12.817Z,99689.69
2023-01-19T23:11:42.021Z,99686.56
2023-01-19T23:14:12.019Z,99695.41
2023-01-19T23:16:38.537Z,99686.69
2023-01-19T23:19:04.988Z,99688.22
2023-01-19T23:21:32.245Z,99693.38
2023-01-19T23:24:01.259Z,99697.38
2023-01-19T23:26:28.865Z,99701.78
2023-01-19T23:28:58.130Z,99702.69
2023-01-19T23:31:26.321Z,99700.19
2023-01-19T23:33:55.544Z,99703.53
2023-01-19T23:36:23.698Z,99712.94
2023-01-19T23:38:54.685Z,99714.59
2023-01-19T23:41:22.012Z,99713.88
2023-01-19T23:43:48.842Z,99717.22
2023-01-19T23:46:16.927Z,99719.88
2023-01-19T23:48:43.342Z,99719.28
2023-01-19T23:51:13.113Z,99720.09
2023-01-19T23:53:40.047Z,99724.28
2023-01-19T23:56:10.286Z,99726.88
2023-01-19T23:58:37.150Z,99730.41
